• Join FlightAware (Why Join?)
  • Login
  • US Flag 
11:40PM EDT


 

Airport Tracker/Info


-or-


 

Live Flight TrackerFlight Track Log ✈ UAL3773 ✈ 21-Apr-2013 ✈ KCLT - KIAD

Flight Track Log - Related Links

Times and Time Zones

All times are in EDT time to prevent confusion due to time zone crossing. See the UAL3773 flight status page for this flight to view local times or setup timezone preferences in your user account.

Time Position Orientation Groundspeed Altitude Reporting Facility
EDT Latitude Longitude Course Direction KTS MPH feet Rate Location/Type
10:29AM 35.2283 -80.9394 72° East 154 177 1,400  Level Atlanta Center
10:30AM 35.2533 -80.9333 11° North 165 190 2,600 1,860 Climbing Atlanta Center
10:31AM 35.2811 -80.8814 57° Northeast 249 287 4,300 2,280 Climbing Atlanta Center
10:32AM 35.2833 -80.8050 88° East 261 300 7,000 2,580 Climbing Atlanta Center
10:33AM 35.2491 -80.5316 30° Northeast  Level FlightAware Approximate
10:33AM 35.2869 -80.7031 87° East 261 300 9,400  Level Atlanta Center
10:34AM 35.3375 -80.4510 72° East  Level FlightAware Approximate
10:34AM 35.3050 -80.5981 78° East 286 329 11,300  Level Atlanta Center
10:35AM 35.3750 -80.3089 72° East  Level FlightAware Approximate
10:35AM 35.3308 -80.4797 75° East 332 382 13,100  Level Atlanta Center
10:37AM 35.3925 -80.2775 69° East 389 448 16,600 1,740 Climbing Washington Center
10:38AM 35.4281 -80.1625 69° East 389 448 17,800 1,560 Climbing Washington Center
10:39AM 35.4669 -80.0192 72° East 400 460 19,800 1,740 Climbing Washington Center
10:40AM 35.5056 -79.8761 72° East 415 478 21,300 1,500 Climbing Washington Center
10:41AM 35.5378 -79.7322 75° East 427 491 22,800 1,380 Climbing Washington Center
10:42AM 35.5758 -79.5964 71° East 448 516 24,100 1,380 Climbing Washington Center
10:43AM 35.6067 -79.4217 78° East 470 541 25,600 1,320 Climbing Washington Center
10:44AM 35.6281 -79.2642 80° East 470 541 26,800 660 Climbing Washington Center
10:45AM 35.6519 -79.0992 80° East 470 541 27,000 60 Climbing Washington Center
10:46AM 35.6736 -78.9261 81° East 494 568 27,000  Level Washington Center
10:47AM 35.7014 -78.7483 79° East 513 590 27,000  Level Washington Center
10:48AM 35.7550 -78.6122 64° Northeast 500 575 27,000  Level Washington Center
10:49AM 35.8733 -78.5528 22° Northeast 429 494 27,000  Level Washington Center
10:50AM 35.9956 -78.5008 19° North 437 503 27,000  Level Washington Center
10:51AM 36.1178 -78.4514 18° North 445 512 27,000  Level Washington Center
10:52AM 36.2381 -78.3989 19° North 450 518 27,000  Level Washington Center
10:53AM 36.3581 -78.3467 19° North 450 518 27,000  Level Washington Center
10:54AM 36.4825 -78.2942 19° North 455 524 27,000  Level Washington Center
10:55AM 36.6025 -78.2414 19° North 455 524 27,000 -660 Level Washington Center
10:56AM 36.7311 -78.1836 20° North 445 512 25,700 -1,620 Descending Washington Center
10:57AM 36.8447 -78.1328 20° North 440 506 23,800 -1,860 Descending Washington Center
10:58AM 36.9586 -78.0819 20° North 434 499 22,000 -900 Descending Washington Center
10:59AM 37.0681 -78.0361 18° North 428 493 22,000  Level Washington Center
11:00AM 37.1794 -77.9875 19° North 423 487 22,000  Level Washington Center
11:01AM 37.2889 -77.9386 20° North 423 487 22,000  Level Washington Center
11:02AM 37.3983 -77.8872 20° North 418 481 22,000 -420 Level Washington Center
11:03AM 37.5078 -77.8406 19° North 418 481 21,200 -1,440 Descending Washington Center
11:04AM 37.6111 -77.7808 25° Northeast 413 475 19,100 -1,800 Descending Washington Center
11:05AM 37.7081 -77.7258 24° Northeast 395 455 17,600 -1,860 Descending Washington Center
11:06AM 37.7964 -77.6758 24° Northeast 373 429 15,500 -2,100 Descending Washington Center
11:07AM 37.8786 -77.6256 26° Northeast 342 394 13,400 -2,040 Descending Washington Center
11:08AM 37.9586 -77.5775 25° Northeast 330 380 11,500 -1,740 Descending Washington Center
11:09AM 38.0344 -77.5372 23° Northeast 306 352 10,000 -780 Descending Washington Center
11:10AM 38.1122 -77.4919 25° Northeast 294 338 10,000  Level Washington Center
11:11AM 38.1839 -77.4489 25° Northeast 294 338 10,000 -600 Level Washington Center
11:12AM 38.2592 -77.4400 North 265 305 8,800 -1,500 Descending Washington Center
11:13AM 38.3275 -77.4708 341° North 253 291 7,100 -900 Descending Washington Center
11:14AM 38.4003 -77.4753 357° North 253 291 7,000 -600 Descending Washington Center
11:15AM 38.4714 -77.4744 North 253 291 6,000 -1,020 Descending Washington Center
11:16AM 38.5422 -77.4736 North 253 291 5,000 -540 Descending Washington Center
11:17AM 38.6111 -77.4700 North 253 291 5,000 -120 Level Washington Center
11:18AM 38.6778 -77.4664 North 253 291 4,800 -1,020 Descending Washington Center
11:19AM 38.7667 -77.4667 360° North 235 270 2,900 -900 Descending Potomac TRACON
11:20AM 38.8167 -77.4667 360° North 189 217 2,900 -540 Level Potomac TRACON
11:21AM 38.8667 -77.4667 360° North 163 188 1,900 -1,020 Descending Potomac TRACON